sensor_id;sensor_type;location;lat;lon;timestamp;temperature;humidity
20957;DHT22;10637;47.970;7.830;2023-04-25T00:01:13;10.30;99.90
20957;DHT22;10637;47.970;7.830;2023-04-25T00:06:14;10.30;99.90
20957;DHT22;10637;47.970;7.830;2023-04-25T00:11:16;10.30;99.90
20957;DHT22;10637;47.970;7.830;2023-04-25T00:16:18;10.30;99.90
20957;DHT22;10637;47.970;7.830;2023-04-25T00:21:20;10.10;99.90
20957;DHT22;10637;47.970;7.830;2023-04-25T00:26:22;10.00;99.90
20957;DHT22;10637;47.970;7.830;2023-04-25T00:31:24;9.90;99.90
20957;DHT22;10637;47.970;7.830;2023-04-25T00:36:26;9.90;99.90
20957;DHT22;10637;47.970;7.830;2023-04-25T00:41:29;9.80;99.90
20957;DHT22;10637;47.970;7.830;2023-04-25T00:46:31;9.80;99.90
20957;DHT22;10637;47.970;7.830;2023-04-25T00:51:33;9.80;99.90
20957;DHT22;10637;47.970;7.830;2023-04-25T00:56:35;9.70;99.90
20957;DHT22;10637;47.970;7.830;2023-04-25T01:01:38;9.60;99.90
20957;DHT22;10637;47.970;7.830;2023-04-25T01:06:40;9.60;99.90
20957;DHT22;10637;47.970;7.830;2023-04-25T01:11:42;9.60;99.90
20957;DHT22;10637;47.970;7.830;2023-04-25T01:16:44;9.50;99.90
20957;DHT22;10637;47.970;7.830;2023-04-25T01:21:47;9.50;99.90
20957;DHT22;10637;47.970;7.830;2023-04-25T01:26:48;9.30;99.90
20957;DHT22;10637;47.970;7.830;2023-04-25T01:31:52;9.20;99.90
20957;DHT22;10637;47.970;7.830;2023-04-25T01:36:54;9.20;99.90
20957;DHT22;10637;47.970;7.830;2023-04-25T01:41:58;9.20;99.90
20957;DHT22;10637;47.970;7.830;2023-04-25T01:47:00;9.20;99.90
20957;DHT22;10637;47.970;7.830;2023-04-25T01:52:02;9.20;99.90
20957;DHT22;10637;47.970;7.830;2023-04-25T01:57:04;9.20;99.90
20957;DHT22;10637;47.970;7.830;2023-04-25T02:02:05;9.20;99.90
20957;DHT22;10637;47.970;7.830;2023-04-25T02:07:07;9.20;99.90
20957;DHT22;10637;47.970;7.830;2023-04-25T02:12:10;9.20;99.90
20957;DHT22;10637;47.970;7.830;2023-04-25T02:17:11;9.20;99.90
20957;DHT22;10637;47.970;7.830;2023-04-25T02:22:14;9.20;99.90
20957;DHT22;10637;47.970;7.830;2023-04-25T02:27:16;9.20;99.90
20957;DHT22;10637;47.970;7.830;2023-04-25T02:32:17;9.20;99.90
20957;DHT22;10637;47.970;7.830;2023-04-25T02:37:19;9.30;99.90
20957;DHT22;10637;47.970;7.830;2023-04-25T02:42:21;9.30;99.90
20957;DHT22;10637;47.970;7.830;2023-04-25T02:47:23;9.30;99.90
20957;DHT22;10637;47.970;7.830;2023-04-25T02:52:25;9.30;99.90
20957;DHT22;10637;47.970;7.830;2023-04-25T02:57:27;9.30;99.90
20957;DHT22;10637;47.970;7.830;2023-04-25T03:02:28;9.30;99.90
20957;DHT22;10637;47.970;7.830;2023-04-25T03:07:30;9.20;99.90
20957;DHT22;10637;47.970;7.830;2023-04-25T03:12:32;9.20;99.90
20957;DHT22;10637;47.970;7.830;2023-04-25T03:17:34;9.00;99.90
20957;DHT22;10637;47.970;7.830;2023-04-25T03:22:36;9.00;99.90
20957;DHT22;10637;47.970;7.830;2023-04-25T03:27:38;8.80;99.90
20957;DHT22;10637;47.970;7.830;2023-04-25T03:32:40;8.70;99.90
20957;DHT22;10637;47.970;7.830;2023-04-25T03:37:41;8.70;99.90
20957;DHT22;10637;47.970;7.830;2023-04-25T03:42:46;8.70;99.90
20957;DHT22;10637;47.970;7.830;2023-04-25T03:47:48;8.80;99.90
20957;DHT22;10637;47.970;7.830;2023-04-25T03:52:50;8.60;99.90
20957;DHT22;10637;47.970;7.830;2023-04-25T03:57:52;8.40;99.90
20957;DHT22;10637;47.970;7.830;2023-04-25T04:02:54;8.30;99.90
20957;DHT22;10637;47.970;7.830;2023-04-25T04:07:56;8.30;99.90
20957;DHT22;10637;47.970;7.830;2023-04-25T04:12:58;8.10;99.90
20957;DHT22;10637;47.970;7.830;2023-04-25T04:18:00;8.00;99.90
20957;DHT22;10637;47.970;7.830;2023-04-25T04:23:05;8.00;99.90
20957;DHT22;10637;47.970;7.830;2023-04-25T04:28:07;8.10;99.90
20957;DHT22;10637;47.970;7.830;2023-04-25T04:33:09;8.10;99.90
20957;DHT22;10637;47.970;7.830;2023-04-25T04:38:10;8.00;99.90
20957;DHT22;10637;47.970;7.830;2023-04-25T04:43:13;8.30;99.90
20957;DHT22;10637;47.970;7.830;2023-04-25T04:48:18;8.40;99.90
20957;DHT22;10637;47.970;7.830;2023-04-25T04:53:20;8.40;99.90
20957;DHT22;10637;47.970;7.830;2023-04-25T04:58:21;8.50;99.90
20957;DHT22;10637;47.970;7.830;2023-04-25T05:03:24;8.60;99.90
20957;DHT22;10637;47.970;7.830;2023-04-25T05:08:26;8.80;99.90
20957;DHT22;10637;47.970;7.830;2023-04-25T05:13:28;8.80;99.90
20957;DHT22;10637;47.970;7.830;2023-04-25T05:18:29;8.90;99.90
20957;DHT22;10637;47.970;7.830;2023-04-25T05:23:32;9.00;99.90
20957;DHT22;10637;47.970;7.830;2023-04-25T05:28:34;8.90;99.90
20957;DHT22;10637;47.970;7.830;2023-04-25T05:33:36;8.50;99.90
20957;DHT22;10637;47.970;7.830;2023-04-25T05:38:37;8.10;99.90
20957;DHT22;10637;47.970;7.830;2023-04-25T05:43:39;7.90;99.90
20957;DHT22;10637;47.970;7.830;2023-04-25T05:48:46;7.80;99.90
20957;DHT22;10637;47.970;7.830;2023-04-25T05:53:48;7.80;99.90
20957;DHT22;10637;47.970;7.830;2023-04-25T05:58:50;7.60;99.90
20957;DHT22;10637;47.970;7.830;2023-04-25T06:03:52;7.50;99.90
20957;DHT22;10637;47.970;7.830;2023-04-25T06:08:55;7.50;99.90
20957;DHT22;10637;47.970;7.830;2023-04-25T06:13:57;7.40;99.90
20957;DHT22;10637;47.970;7.830;2023-04-25T06:18:58;7.50;99.90
20957;DHT22;10637;47.970;7.830;2023-04-25T06:24:00;7.60;99.90
20957;DHT22;10637;47.970;7.830;2023-04-25T06:29:02;7.60;99.90
20957;DHT22;10637;47.970;7.830;2023-04-25T06:34:04;7.70;99.90
20957;DHT22;10637;47.970;7.830;2023-04-25T06:39:05;7.70;99.90
20957;DHT22;10637;47.970;7.830;2023-04-25T06:44:07;7.70;99.90
20957;DHT22;10637;47.970;7.830;2023-04-25T06:49:09;7.60;99.90
20957;DHT22;10637;47.970;7.830;2023-04-25T06:54:11;7.60;99.90
20957;DHT22;10637;47.970;7.830;2023-04-25T06:59:12;7.70;99.90
20957;DHT22;10637;47.970;7.830;2023-04-25T07:04:14;7.70;99.90
20957;DHT22;10637;47.970;7.830;2023-04-25T07:09:16;7.70;99.90
20957;DHT22;10637;47.970;7.830;2023-04-25T07:14:18;7.80;99.90
20957;DHT22;10637;47.970;7.830;2023-04-25T07:19:20;7.70;99.90
20957;DHT22;10637;47.970;7.830;2023-04-25T07:24:22;7.70;99.90
20957;DHT22;10637;47.970;7.830;2023-04-25T07:29:24;7.90;99.90
20957;DHT22;10637;47.970;7.830;2023-04-25T07:34:26;8.10;99.90
20957;DHT22;10637;47.970;7.830;2023-04-25T07:39:27;8.10;99.90
20957;DHT22;10637;47.970;7.830;2023-04-25T07:44:29;8.10;99.90
20957;DHT22;10637;47.970;7.830;2023-04-25T07:49:39;8.00;99.90
20957;DHT22;10637;47.970;7.830;2023-04-25T07:54:41;8.00;99.90
20957;DHT22;10637;47.970;7.830;2023-04-25T07:59:43;8.00;99.90
20957;DHT22;10637;47.970;7.830;2023-04-25T08:04:45;8.10;99.90
20957;DHT22;10637;47.970;7.830;2023-04-25T08:09:47;8.30;99.90
20957;DHT22;10637;47.970;7.830;2023-04-25T08:14:49;8.20;99.90
20957;DHT22;10637;47.970;7.830;2023-04-25T08:19:50;8.30;99.90
20957;DHT22;10637;47.970;7.830;2023-04-25T08:24:52;8.60;99.90
20957;DHT22;10637;47.970;7.830;2023-04-25T08:29:54;8.90;99.90
20957;DHT22;10637;47.970;7.830;2023-04-25T08:34:56;9.10;99.90
20957;DHT22;10637;47.970;7.830;2023-04-25T08:39:58;9.00;99.90
20957;DHT22;10637;47.970;7.830;2023-04-25T08:45:01;9.00;99.90
20957;DHT22;10637;47.970;7.830;2023-04-25T08:50:07;8.90;99.90
20957;DHT22;10637;47.970;7.830;2023-04-25T08:55:09;8.90;99.90
20957;DHT22;10637;47.970;7.830;2023-04-25T09:00:12;8.90;99.90
20957;DHT22;10637;47.970;7.830;2023-04-25T09:05:14;8.90;99.90
20957;DHT22;10637;47.970;7.830;2023-04-25T09:10:16;9.10;99.90
20957;DHT22;10637;47.970;7.830;2023-04-25T09:15:18;9.20;99.90
20957;DHT22;10637;47.970;7.830;2023-04-25T09:20:21;9.30;99.90
20957;DHT22;10637;47.970;7.830;2023-04-25T09:25:24;9.50;99.90
20957;DHT22;10637;47.970;7.830;2023-04-25T09:30:31;9.70;99.90
20957;DHT22;10637;47.970;7.830;2023-04-25T09:35:43;9.70;99.90
20957;DHT22;10637;47.970;7.830;2023-04-25T09:40:46;9.80;99.90
20957;DHT22;10637;47.970;7.830;2023-04-25T09:45:53;9.90;99.90
20957;DHT22;10637;47.970;7.830;2023-04-25T09:51:10;10.50;99.90
20957;DHT22;10637;47.970;7.830;2023-04-25T09:56:13;11.20;99.90
20957;DHT22;10637;47.970;7.830;2023-04-25T10:01:16;11.80;99.90
20957;DHT22;10637;47.970;7.830;2023-04-25T10:06:19;11.30;99.90
20957;DHT22;10637;47.970;7.830;2023-04-25T10:11:23;11.00;99.90
20957;DHT22;10637;47.970;7.830;2023-04-25T10:16:26;11.30;99.90
20957;DHT22;10637;47.970;7.830;2023-04-25T10:21:31;11.70;99.90
20957;DHT22;10637;47.970;7.830;2023-04-25T10:26:34;11.90;99.90
20957;DHT22;10637;47.970;7.830;2023-04-25T10:31:45;12.60;99.90
20957;DHT22;10637;47.970;7.830;2023-04-25T10:36:51;13.40;99.90
20957;DHT22;10637;47.970;7.830;2023-04-25T10:41:57;13.70;99.90
20957;DHT22;10637;47.970;7.830;2023-04-25T10:47:00;13.50;99.90
20957;DHT22;10637;47.970;7.830;2023-04-25T10:52:15;13.90;99.90
20957;DHT22;10637;47.970;7.830;2023-04-25T10:57:38;14.10;99.90
20957;DHT22;10637;47.970;7.830;2023-04-25T11:03:00;13.50;99.90
20957;DHT22;10637;47.970;7.830;2023-04-25T11:08:13;13.50;99.90
20957;DHT22;10637;47.970;7.830;2023-04-25T11:13:15;14.40;99.90
20957;DHT22;10637;47.970;7.830;2023-04-25T11:18:17;15.00;99.90
20957;DHT22;10637;47.970;7.830;2023-04-25T11:23:20;15.30;99.90
20957;DHT22;10637;47.970;7.830;2023-04-25T11:28:22;15.40;99.90
20957;DHT22;10637;47.970;7.830;2023-04-25T11:33:26;14.80;99.90
20957;DHT22;10637;47.970;7.830;2023-04-25T11:38:31;13.10;99.90
20957;DHT22;10637;47.970;7.830;2023-04-25T11:43:33;12.80;99.90
20957;DHT22;10637;47.970;7.830;2023-04-25T11:48:42;13.10;99.90
20957;DHT22;10637;47.970;7.830;2023-04-25T11:53:44;12.30;99.90
20957;DHT22;10637;47.970;7.830;2023-04-25T11:59:00;11.80;99.90
20957;DHT22;10637;47.970;7.830;2023-04-25T12:04:14;11.30;99.90
20957;DHT22;10637;47.970;7.830;2023-04-25T12:09:31;11.30;99.90
20957;DHT22;10637;47.970;7.830;2023-04-25T12:14:34;12.90;99.90
20957;DHT22;10637;47.970;7.830;2023-04-25T12:19:38;14.50;99.90
20957;DHT22;10637;47.970;7.830;2023-04-25T12:24:45;15.90;99.90
20957;DHT22;10637;47.970;7.830;2023-04-25T12:29:56;16.70;99.90
20957;DHT22;10637;47.970;7.830;2023-04-25T12:34:58;16.30;99.90
20957;DHT22;10637;47.970;7.830;2023-04-25T12:39:59;16.60;99.90
20957;DHT22;10637;47.970;7.830;2023-04-25T12:45:02;16.50;99.90
20957;DHT22;10637;47.970;7.830;2023-04-25T12:50:04;16.10;99.90
20957;DHT22;10637;47.970;7.830;2023-04-25T12:55:06;16.00;99.90
20957;DHT22;10637;47.970;7.830;2023-04-25T13:00:08;16.90;99.90
20957;DHT22;10637;47.970;7.830;2023-04-25T13:05:16;16.30;99.90
20957;DHT22;10637;47.970;7.830;2023-04-25T13:10:18;16.90;99.90
20957;DHT22;10637;47.970;7.830;2023-04-25T13:15:19;17.00;99.90
20957;DHT22;10637;47.970;7.830;2023-04-25T13:20:22;16.60;99.90
20957;DHT22;10637;47.970;7.830;2023-04-25T13:25:24;17.30;99.90
20957;DHT22;10637;47.970;7.830;2023-04-25T13:30:26;17.00;99.90
20957;DHT22;10637;47.970;7.830;2023-04-25T13:35:28;16.70;99.00
20957;DHT22;10637;47.970;7.830;2023-04-25T13:40:30;16.40;99.90
20957;DHT22;10637;47.970;7.830;2023-04-25T13:45:32;16.20;99.90
20957;DHT22;10637;47.970;7.830;2023-04-25T13:50:34;16.40;99.90
20957;DHT22;10637;47.970;7.830;2023-04-25T13:55:36;15.80;99.90
20957;DHT22;10637;47.970;7.830;2023-04-25T14:00:38;15.90;99.90
20957;DHT22;10637;47.970;7.830;2023-04-25T14:05:41;16.30;99.90
20957;DHT22;10637;47.970;7.830;2023-04-25T14:10:43;16.10;99.90
20957;DHT22;10637;47.970;7.830;2023-04-25T14:15:45;15.50;99.90
20957;DHT22;10637;47.970;7.830;2023-04-25T14:20:47;14.30;99.90
20957;DHT22;10637;47.970;7.830;2023-04-25T14:25:49;14.80;99.90
20957;DHT22;10637;47.970;7.830;2023-04-25T14:30:51;14.20;99.90
20957;DHT22;10637;47.970;7.830;2023-04-25T14:35:52;14.50;99.90
20957;DHT22;10637;47.970;7.830;2023-04-25T14:40:54;14.30;99.90
20957;DHT22;10637;47.970;7.830;2023-04-25T14:45:56;14.10;99.90
20957;DHT22;10637;47.970;7.830;2023-04-25T14:50:59;13.80;99.90
20957;DHT22;10637;47.970;7.830;2023-04-25T14:56:04;14.10;99.90
20957;DHT22;10637;47.970;7.830;2023-04-25T15:01:06;13.90;99.90
20957;DHT22;10637;47.970;7.830;2023-04-25T15:06:10;13.70;99.90
20957;DHT22;10637;47.970;7.830;2023-04-25T15:11:12;13.40;99.90
20957;DHT22;10637;47.970;7.830;2023-04-25T15:16:13;13.00;99.90
20957;DHT22;10637;47.970;7.830;2023-04-25T15:21:15;12.70;99.90
20957;DHT22;10637;47.970;7.830;2023-04-25T15:26:17;12.20;99.90
20957;DHT22;10637;47.970;7.830;2023-04-25T15:31:19;11.90;99.90
20957;DHT22;10637;47.970;7.830;2023-04-25T15:36:21;11.70;99.90
20957;DHT22;10637;47.970;7.830;2023-04-25T15:41:23;11.60;99.90
20957;DHT22;10637;47.970;7.830;2023-04-25T15:46:27;11.50;99.90
20957;DHT22;10637;47.970;7.830;2023-04-25T15:51:29;10.90;99.90
20957;DHT22;10637;47.970;7.830;2023-04-25T15:56:31;10.70;99.90
20957;DHT22;10637;47.970;7.830;2023-04-25T16:01:32;10.60;99.90
20957;DHT22;10637;47.970;7.830;2023-04-25T16:06:35;10.20;99.90
20957;DHT22;10637;47.970;7.830;2023-04-25T16:11:37;10.10;99.90
20957;DHT22;10637;47.970;7.830;2023-04-25T16:16:38;10.00;99.90
20957;DHT22;10637;47.970;7.830;2023-04-25T16:21:41;10.20;99.90
20957;DHT22;10637;47.970;7.830;2023-04-25T16:26:43;10.50;99.90
20957;DHT22;10637;47.970;7.830;2023-04-25T16:31:45;10.60;99.90
20957;DHT22;10637;47.970;7.830;2023-04-25T16:36:48;11.00;99.90
20957;DHT22;10637;47.970;7.830;2023-04-25T16:41:50;11.00;99.90
20957;DHT22;10637;47.970;7.830;2023-04-25T16:46:52;11.00;99.90
20957;DHT22;10637;47.970;7.830;2023-04-25T16:51:54;11.10;99.90
20957;DHT22;10637;47.970;7.830;2023-04-25T16:56:56;11.10;99.90
20957;DHT22;10637;47.970;7.830;2023-04-25T17:01:58;11.00;99.90
20957;DHT22;10637;47.970;7.830;2023-04-25T17:07:00;11.00;99.90
20957;DHT22;10637;47.970;7.830;2023-04-25T17:12:03;10.50;99.90
20957;DHT22;10637;47.970;7.830;2023-04-25T17:17:05;10.60;99.90
20957;DHT22;10637;47.970;7.830;2023-04-25T17:22:08;10.70;99.90
20957;DHT22;10637;47.970;7.830;2023-04-25T17:27:10;10.20;99.90
20957;DHT22;10637;47.970;7.830;2023-04-25T17:32:12;10.10;99.90
20957;DHT22;10637;47.970;7.830;2023-04-25T17:37:17;10.00;99.90
20957;DHT22;10637;47.970;7.830;2023-04-25T17:42:19;10.30;99.90
20957;DHT22;10637;47.970;7.830;2023-04-25T17:47:22;10.50;99.90
20957;DHT22;10637;47.970;7.830;2023-04-25T17:52:24;10.50;99.90
20957;DHT22;10637;47.970;7.830;2023-04-25T17:57:26;10.80;99.90
20957;DHT22;10637;47.970;7.830;2023-04-25T18:02:28;10.90;99.90
20957;DHT22;10637;47.970;7.830;2023-04-25T18:07:30;11.00;99.90
20957;DHT22;10637;47.970;7.830;2023-04-25T18:12:32;10.90;99.90
20957;DHT22;10637;47.970;7.830;2023-04-25T18:17:35;10.60;99.90
20957;DHT22;10637;47.970;7.830;2023-04-25T18:22:44;10.20;99.90
20957;DHT22;10637;47.970;7.830;2023-04-25T18:27:46;9.70;99.90
20957;DHT22;10637;47.970;7.830;2023-04-25T18:32:48;9.80;99.90
20957;DHT22;10637;47.970;7.830;2023-04-25T18:37:50;10.00;99.90
20957;DHT22;10637;47.970;7.830;2023-04-25T18:42:52;9.90;99.90
20957;DHT22;10637;47.970;7.830;2023-04-25T18:47:54;9.80;99.90
20957;DHT22;10637;47.970;7.830;2023-04-25T18:52:56;9.80;99.90
20957;DHT22;10637;47.970;7.830;2023-04-25T18:57:58;9.90;99.90
20957;DHT22;10637;47.970;7.830;2023-04-25T19:02:59;9.90;99.90
20957;DHT22;10637;47.970;7.830;2023-04-25T19:08:05;9.90;99.90
20957;DHT22;10637;47.970;7.830;2023-04-25T19:13:07;10.00;99.90
20957;DHT22;10637;47.970;7.830;2023-04-25T19:18:09;9.90;99.90
20957;DHT22;10637;47.970;7.830;2023-04-25T19:23:11;9.80;99.90
20957;DHT22;10637;47.970;7.830;2023-04-25T19:28:13;9.60;99.90
20957;DHT22;10637;47.970;7.830;2023-04-25T19:33:16;9.70;99.90
20957;DHT22;10637;47.970;7.830;2023-04-25T19:38:18;9.70;99.90
20957;DHT22;10637;47.970;7.830;2023-04-25T19:43:19;9.30;99.90
20957;DHT22;10637;47.970;7.830;2023-04-25T19:48:21;9.30;99.90
20957;DHT22;10637;47.970;7.830;2023-04-25T19:53:23;9.20;99.90
20957;DHT22;10637;47.970;7.830;2023-04-25T19:58:25;9.20;99.90
20957;DHT22;10637;47.970;7.830;2023-04-25T20:03:26;9.20;99.90
20957;DHT22;10637;47.970;7.830;2023-04-25T20:08:29;9.20;99.90
20957;DHT22;10637;47.970;7.830;2023-04-25T20:13:31;8.90;99.90
20957;DHT22;10637;47.970;7.830;2023-04-25T20:18:33;8.80;99.90
20957;DHT22;10637;47.970;7.830;2023-04-25T20:23:34;8.90;99.90
20957;DHT22;10637;47.970;7.830;2023-04-25T20:28:36;9.00;99.90
20957;DHT22;10637;47.970;7.830;2023-04-25T20:33:38;9.10;99.90
20957;DHT22;10637;47.970;7.830;2023-04-25T20:38:40;9.30;99.90
20957;DHT22;10637;47.970;7.830;2023-04-25T20:43:42;9.20;99.90
20957;DHT22;10637;47.970;7.830;2023-04-25T20:48:43;9.10;99.90
20957;DHT22;10637;47.970;7.830;2023-04-25T20:53:45;9.00;99.90
20957;DHT22;10637;47.970;7.830;2023-04-25T20:58:47;8.90;99.90
20957;DHT22;10637;47.970;7.830;2023-04-25T21:03:50;9.00;99.90
20957;DHT22;10637;47.970;7.830;2023-04-25T21:08:52;9.10;99.90
20957;DHT22;10637;47.970;7.830;2023-04-25T21:13:54;9.30;99.90
20957;DHT22;10637;47.970;7.830;2023-04-25T21:18:56;9.20;99.90
20957;DHT22;10637;47.970;7.830;2023-04-25T21:23:58;9.20;99.90
20957;DHT22;10637;47.970;7.830;2023-04-25T21:29:00;9.50;99.90
20957;DHT22;10637;47.970;7.830;2023-04-25T21:34:01;9.50;99.90
20957;DHT22;10637;47.970;7.830;2023-04-25T21:39:03;9.30;99.90
20957;DHT22;10637;47.970;7.830;2023-04-25T21:44:06;9.30;99.90
20957;DHT22;10637;47.970;7.830;2023-04-25T21:49:07;9.20;99.90
20957;DHT22;10637;47.970;7.830;2023-04-25T21:54:09;9.10;99.90
20957;DHT22;10637;47.970;7.830;2023-04-25T21:59:11;8.90;99.90
20957;DHT22;10637;47.970;7.830;2023-04-25T22:04:13;9.00;99.90
20957;DHT22;10637;47.970;7.830;2023-04-25T22:09:15;9.00;99.90
20957;DHT22;10637;47.970;7.830;2023-04-25T22:14:17;9.10;99.90
20957;DHT22;10637;47.970;7.830;2023-04-25T22:19:19;8.80;99.90
20957;DHT22;10637;47.970;7.830;2023-04-25T22:24:22;8.70;99.90
20957;DHT22;10637;47.970;7.830;2023-04-25T22:29:25;8.70;99.90
20957;DHT22;10637;47.970;7.830;2023-04-25T22:34:27;8.70;99.90
20957;DHT22;10637;47.970;7.830;2023-04-25T22:39:29;8.70;99.90
20957;DHT22;10637;47.970;7.830;2023-04-25T22:44:32;8.80;99.90
20957;DHT22;10637;47.970;7.830;2023-04-25T22:49:34;8.80;99.90
20957;DHT22;10637;47.970;7.830;2023-04-25T22:54:36;8.80;99.90
20957;DHT22;10637;47.970;7.830;2023-04-25T22:59:39;8.70;99.90
20957;DHT22;10637;47.970;7.830;2023-04-25T23:04:41;8.70;99.90
20957;DHT22;10637;47.970;7.830;2023-04-25T23:09:43;8.80;99.90
20957;DHT22;10637;47.970;7.830;2023-04-25T23:14:49;8.80;99.90
20957;DHT22;10637;47.970;7.830;2023-04-25T23:19:52;8.90;99.90
20957;DHT22;10637;47.970;7.830;2023-04-25T23:24:54;8.90;99.90
20957;DHT22;10637;47.970;7.830;2023-04-25T23:29:56;8.80;99.90
20957;DHT22;10637;47.970;7.830;2023-04-25T23:34:58;8.60;99.90
20957;DHT22;10637;47.970;7.830;2023-04-25T23:40:00;8.60;99.90
20957;DHT22;10637;47.970;7.830;2023-04-25T23:45:03;8.60;99.90
20957;DHT22;10637;47.970;7.830;2023-04-25T23:50:06;8.60;99.90
20957;DHT22;10637;47.970;7.830;2023-04-25T23:55:08;8.50;99.90
